sensor_id;sensor_type;location;lat;lon;timestamp;pressure;altitude;pressure_sealevel;temperature;humidity
40089;BME280;25793;55.706;13.186;2022-12-10T09:23:05;100433.28;;;2.82;77.72
40089;BME280;25793;55.706;13.186;2022-12-10T09:25:32;100434.78;;;2.90;77.47
40089;BME280;25793;55.706;13.186;2022-12-10T09:28:01;100430.91;;;3.03;77.04
40089;BME280;25793;55.706;13.186;2022-12-10T09:30:30;100439.13;;;3.16;76.67
40089;BME280;25793;55.706;13.186;2022-12-10T09:32:57;100432.50;;;3.07;76.39
40089;BME280;25793;55.706;13.186;2022-12-10T09:35:24;100429.94;;;3.07;76.52
40089;BME280;25793;55.706;13.186;2022-12-10T09:37:51;100442.50;;;3.17;76.24
40089;BME280;25793;55.706;13.186;2022-12-10T09:40:36;100438.31;;;3.14;76.00
40089;BME280;25793;55.706;13.186;2022-12-10T09:43:16;100440.81;;;3.17;76.09
40089;BME280;25793;55.706;13.186;2022-12-10T09:45:55;100435.16;;;3.06;75.80
40089;BME280;25793;55.706;13.186;2022-12-10T09:49:08;100438.53;;;3.06;75.88
40089;BME280;25793;55.706;13.186;2022-12-10T09:51:54;100430.25;;;2.68;76.52
40089;BME280;25793;55.706;13.186;2022-12-10T09:54:23;100447.31;;;2.71;76.94
40089;BME280;25793;55.706;13.186;2022-12-10T09:56:55;100429.28;;;2.72;76.96
40089;BME280;25793;55.706;13.186;2022-12-10T09:59:42;100429.91;;;2.80;77.06
40089;BME280;25793;55.706;13.186;2022-12-10T10:04:52;100450.75;;;3.00;76.83
40089;BME280;25793;55.706;13.186;2022-12-10T10:07:26;100443.47;;;2.84;77.00
40089;BME280;25793;55.706;13.186;2022-12-10T10:10:26;100445.50;;;3.03;76.77
40089;BME280;25793;55.706;13.186;2022-12-10T10:13:01;100441.25;;;3.02;76.46
40089;BME280;25793;55.706;13.186;2022-12-10T10:15:43;100443.50;;;3.12;76.46
40089;BME280;25793;55.706;13.186;2022-12-10T10:18:45;100448.91;;;3.03;76.23
40089;BME280;25793;55.706;13.186;2022-12-10T10:21:32;100447.78;;;2.83;76.63
40089;BME280;25793;55.706;13.186;2022-12-10T10:23:59;100436.63;;;2.85;76.54
40089;BME280;25793;55.706;13.186;2022-12-10T10:26:37;100445.56;;;3.01;76.52
40089;BME280;25793;55.706;13.186;2022-12-10T10:29:09;100445.97;;;2.87;76.42
40089;BME280;25793;55.706;13.186;2022-12-10T14:01:13;100467.31;;;2.59;74.95
40089;BME280;25793;55.706;13.186;2022-12-10T14:04:17;100467.09;;;2.67;75.11
40089;BME280;25793;55.706;13.186;2022-12-10T14:06:55;100461.44;;;2.56;75.08
40089;BME280;25793;55.706;13.186;2022-12-10T14:09:34;100468.44;;;2.49;75.61
40089;BME280;25793;55.706;13.186;2022-12-10T14:12:16;100466.06;;;2.43;76.10
40089;BME280;25793;55.706;13.186;2022-12-10T14:14:48;100474.03;;;2.33;76.16
40089;BME280;25793;55.706;13.186;2022-12-10T14:17:20;100470.78;;;2.27;76.41
40089;BME280;25793;55.706;13.186;2022-12-10T14:19:56;100467.16;;;2.34;76.78
40089;BME280;25793;55.706;13.186;2022-12-10T14:23:32;100469.94;;;2.26;76.95
40089;BME280;25793;55.706;13.186;2022-12-10T14:28:44;100463.44;;;2.13;77.52
40089;BME280;25793;55.706;13.186;2022-12-10T14:31:17;100452.22;;;2.17;77.46
40089;BME280;25793;55.706;13.186;2022-12-10T14:34:06;100455.94;;;2.05;78.36
40089;BME280;25793;55.706;13.186;2022-12-10T14:39:26;100451.91;;;1.96;78.32
40089;BME280;25793;55.706;13.186;2022-12-10T14:41:57;100467.81;;;2.09;78.49
40089;BME280;25793;55.706;13.186;2022-12-10T14:44:27;100467.75;;;2.11;78.22
40089;BME280;25793;55.706;13.186;2022-12-10T14:47:17;100467.94;;;2.04;78.65
40089;BME280;25793;55.706;13.186;2022-12-10T14:49:47;100459.38;;;2.05;78.62
40089;BME280;25793;55.706;13.186;2022-12-10T14:52:17;100467.75;;;2.12;78.94
40089;BME280;25793;55.706;13.186;2022-12-10T14:54:45;100470.06;;;2.21;78.63
40089;BME280;25793;55.706;13.186;2022-12-10T14:57:21;100469.94;;;2.26;78.01
40089;BME280;25793;55.706;13.186;2022-12-10T14:59:58;100466.66;;;2.21;78.47
40089;BME280;25793;55.706;13.186;2022-12-10T15:02:30;100467.53;;;2.20;78.37
40089;BME280;25793;55.706;13.186;2022-12-10T15:04:59;100474.25;;;2.26;78.24
40089;BME280;25793;55.706;13.186;2022-12-10T15:07:31;100481.13;;;2.23;78.27
40089;BME280;25793;55.706;13.186;2022-12-10T15:10:05;100464.06;;;2.22;78.00
40089;BME280;25793;55.706;13.186;2022-12-10T15:12:49;100471.53;;;2.30;78.00
40089;BME280;25793;55.706;13.186;2022-12-10T15:18:03;100471.47;;;2.32;77.67
40089;BME280;25793;55.706;13.186;2022-12-10T15:20:54;100483.41;;;2.34;77.63
40089;BME280;25793;55.706;13.186;2022-12-10T15:26:03;100480.78;;;2.36;77.50
40089;BME280;25793;55.706;13.186;2022-12-10T15:28:35;100476.88;;;2.22;77.33
40089;BME280;25793;55.706;13.186;2022-12-10T15:33:54;100489.50;;;2.30;77.35
40089;BME280;25793;55.706;13.186;2022-12-10T15:39:04;100485.28;;;2.28;77.52
40089;BME280;25793;55.706;13.186;2022-12-10T15:47:03;100476.44;;;2.38;77.47
40089;BME280;25793;55.706;13.186;2022-12-10T15:49:35;100479.97;;;2.35;77.53
40089;BME280;25793;55.706;13.186;2022-12-10T15:52:03;100484.38;;;2.30;77.26
40089;BME280;25793;55.706;13.186;2022-12-10T15:54:36;100489.34;;;2.36;77.07
40089;BME280;25793;55.706;13.186;2022-12-10T15:57:24;100486.56;;;2.44;76.66
40089;BME280;25793;55.706;13.186;2022-12-10T15:59:53;100491.53;;;2.50;76.68
40089;BME280;25793;55.706;13.186;2022-12-10T16:04:56;100488.06;;;2.51;76.54
40089;BME280;25793;55.706;13.186;2022-12-10T16:07:23;100489.13;;;2.44;76.59
40089;BME280;25793;55.706;13.186;2022-12-10T16:09:50;100484.16;;;2.38;76.83
40089;BME280;25793;55.706;13.186;2022-12-10T16:12:18;100486.41;;;2.49;76.76
40089;BME280;25793;55.706;13.186;2022-12-10T16:14:50;100490.44;;;2.59;76.46
40089;BME280;25793;55.706;13.186;2022-12-10T16:17:19;100468.91;;;2.63;76.18
40089;BME280;25793;55.706;13.186;2022-12-10T16:19:46;100485.78;;;2.72;75.69
40089;BME280;25793;55.706;13.186;2022-12-10T16:22:13;100480.81;;;2.66;75.75
40089;BME280;25793;55.706;13.186;2022-12-10T16:24:39;100473.34;;;2.58;75.56
40089;BME280;25793;55.706;13.186;2022-12-10T16:27:15;100489.50;;;2.62;75.69
40089;BME280;25793;55.706;13.186;2022-12-10T16:29:43;100472.44;;;2.59;75.69
40089;BME280;25793;55.706;13.186;2022-12-10T16:32:10;100475.66;;;2.67;75.46
40089;BME280;25793;55.706;13.186;2022-12-10T16:34:39;100480.03;;;2.64;75.33
40089;BME280;25793;55.706;13.186;2022-12-10T16:37:06;100488.50;;;2.66;75.27
40089;BME280;25793;55.706;13.186;2022-12-10T16:39:33;100486.16;;;2.60;75.10
40089;BME280;25793;55.706;13.186;2022-12-10T16:42:00;100484.53;;;2.56;75.22
40089;BME280;25793;55.706;13.186;2022-12-10T16:44:27;100477.00;;;2.49;75.53
40089;BME280;25793;55.706;13.186;2022-12-10T16:46:54;100487.06;;;2.57;75.37
40089;BME280;25793;55.706;13.186;2022-12-10T16:49:21;100484.41;;;2.60;75.31
40089;BME280;25793;55.706;13.186;2022-12-10T16:51:47;100471.53;;;2.62;75.23
40089;BME280;25793;55.706;13.186;2022-12-10T16:54:14;100482.38;;;2.72;74.98
40089;BME280;25793;55.706;13.186;2022-12-10T16:56:41;100473.09;;;2.67;74.94
40089;BME280;25793;55.706;13.186;2022-12-10T16:59:08;100492.03;;;2.63;74.63
40089;BME280;25793;55.706;13.186;2022-12-10T17:01:37;100469.22;;;2.52;74.93
40089;BME280;25793;55.706;13.186;2022-12-10T17:04:04;100470.19;;;2.48;74.77
40089;BME280;25793;55.706;13.186;2022-12-10T17:06:31;100475.53;;;2.41;74.95
40089;BME280;25793;55.706;13.186;2022-12-10T17:08:58;100479.75;;;2.43;74.88
40089;BME280;25793;55.706;13.186;2022-12-10T17:11:28;100492.34;;;2.51;74.78
40089;BME280;25793;55.706;13.186;2022-12-10T17:14:26;100481.47;;;2.43;74.67
40089;BME280;25793;55.706;13.186;2022-12-10T17:16:57;100485.72;;;2.44;74.39
40089;BME280;25793;55.706;13.186;2022-12-10T17:19:29;100490.66;;;2.50;74.50
40089;BME280;25793;55.706;13.186;2022-12-10T17:21:56;100485.59;;;2.48;74.55
40089;BME280;25793;55.706;13.186;2022-12-10T17:24:26;100489.75;;;2.52;74.69
40089;BME280;25793;55.706;13.186;2022-12-10T17:26:55;100488.06;;;2.51;74.72
40089;BME280;25793;55.706;13.186;2022-12-10T17:29:31;100483.69;;;2.55;74.54
40089;BME280;25793;55.706;13.186;2022-12-10T17:31:59;100471.72;;;2.56;74.39
40089;BME280;25793;55.706;13.186;2022-12-10T17:34:26;100475.00;;;2.61;74.32
40089;BME280;25793;55.706;13.186;2022-12-10T17:36:53;100479.16;;;2.65;74.27
40089;BME280;25793;55.706;13.186;2022-12-10T17:39:21;100485.06;;;2.67;74.29
40089;BME280;25793;55.706;13.186;2022-12-10T17:41:51;100485.59;;;2.78;74.05
40089;BME280;25793;55.706;13.186;2022-12-10T17:44:18;100492.28;;;2.84;74.30
40089;BME280;25793;55.706;13.186;2022-12-10T17:46:49;100493.22;;;2.81;74.15
40089;BME280;25793;55.706;13.186;2022-12-10T17:49:16;100492.50;;;2.78;74.12
40089;BME280;25793;55.706;13.186;2022-12-10T17:51:43;100483.38;;;2.66;74.24
40089;BME280;25793;55.706;13.186;2022-12-10T17:54:11;100496.16;;;2.37;75.34
40089;BME280;25793;55.706;13.186;2022-12-10T17:56:38;100495.13;;;2.45;75.60
40089;BME280;25793;55.706;13.186;2022-12-10T17:59:05;100488.31;;;2.42;75.71
40089;BME280;25793;55.706;13.186;2022-12-10T18:01:32;100502.91;;;2.42;75.60
40089;BME280;25793;55.706;13.186;2022-12-10T18:03:59;100495.13;;;2.45;75.58
40089;BME280;25793;55.706;13.186;2022-12-10T18:06:28;100496.66;;;2.50;75.61
40089;BME280;25793;55.706;13.186;2022-12-10T18:08:58;100503.91;;;2.66;75.08
40089;BME280;25793;55.706;13.186;2022-12-10T18:11:34;100487.03;;;2.59;74.86
40089;BME280;25793;55.706;13.186;2022-12-10T18:14:01;100497.97;;;2.65;74.92
40089;BME280;25793;55.706;13.186;2022-12-10T18:16:31;100492.03;;;2.63;74.92
40089;BME280;25793;55.706;13.186;2022-12-10T18:19:01;100486.25;;;2.55;75.43
40089;BME280;25793;55.706;13.186;2022-12-10T18:21:30;100494.69;;;2.60;75.46
40089;BME280;25793;55.706;13.186;2022-12-10T18:23:57;100498.25;;;2.55;75.91
40089;BME280;25793;55.706;13.186;2022-12-10T18:26:25;100495.03;;;2.15;76.94
40089;BME280;25793;55.706;13.186;2022-12-10T18:28:54;100498.38;;;2.18;77.16
40089;BME280;25793;55.706;13.186;2022-12-10T18:31:34;100499.56;;;2.05;77.86
40089;BME280;25793;55.706;13.186;2022-12-10T18:34:05;100482.28;;;2.12;77.87
40089;BME280;25793;55.706;13.186;2022-12-10T18:36:35;100492.34;;;2.19;78.08
40089;BME280;25793;55.706;13.186;2022-12-10T18:39:07;100500.78;;;2.25;77.87
40089;BME280;25793;55.706;13.186;2022-12-10T18:41:39;100493.34;;;2.14;77.67
40089;BME280;25793;55.706;13.186;2022-12-10T18:44:06;100510.94;;;2.28;78.15
40089;BME280;25793;55.706;13.186;2022-12-10T18:46:38;100507.09;;;2.44;77.39
40089;BME280;25793;55.706;13.186;2022-12-10T18:49:05;100512.19;;;2.46;77.22
40089;BME280;25793;55.706;13.186;2022-12-10T18:51:32;100507.66;;;2.56;76.79
40089;BME280;25793;55.706;13.186;2022-12-10T18:53:59;100510.88;;;2.62;76.53
40089;BME280;25793;55.706;13.186;2022-12-10T18:56:26;100504.13;;;2.60;76.28
40089;BME280;25793;55.706;13.186;2022-12-10T18:58:56;100508.88;;;2.74;76.21
40089;BME280;25793;55.706;13.186;2022-12-10T19:01:23;100516.91;;;2.91;75.55
40089;BME280;25793;55.706;13.186;2022-12-10T19:03:52;100509.38;;;2.85;75.94
40089;BME280;25793;55.706;13.186;2022-12-10T19:06:22;100501.66;;;2.55;76.21
40089;BME280;25793;55.706;13.186;2022-12-10T19:08:50;100502.44;;;2.59;76.67
40089;BME280;25793;55.706;13.186;2022-12-10T19:11:37;100504.38;;;2.50;77.15
40089;BME280;25793;55.706;13.186;2022-12-10T19:14:04;100509.41;;;2.53;77.12
40089;BME280;25793;55.706;13.186;2022-12-10T19:16:34;100515.44;;;2.52;77.49
40089;BME280;25793;55.706;13.186;2022-12-10T19:19:02;100526.38;;;2.59;77.44
40089;BME280;25793;55.706;13.186;2022-12-10T19:21:33;100511.19;;;2.51;77.78
40089;BME280;25793;55.706;13.186;2022-12-10T19:24:00;100516.16;;;2.58;78.18
40089;BME280;25793;55.706;13.186;2022-12-10T19:26:33;100505.53;;;2.38;78.37
40089;BME280;25793;55.706;13.186;2022-12-10T19:29:12;100508.78;;;2.45;78.52
40089;BME280;25793;55.706;13.186;2022-12-10T19:31:41;100513.97;;;2.44;78.45
40089;BME280;25793;55.706;13.186;2022-12-10T19:34:11;100508.84;;;2.42;78.46
40089;BME280;25793;55.706;13.186;2022-12-10T19:36:39;100508.22;;;2.34;78.61
40089;BME280;25793;55.706;13.186;2022-12-10T19:39:14;100522.06;;;2.28;78.88
40089;BME280;25793;55.706;13.186;2022-12-10T19:41:41;100515.97;;;2.32;79.09
40089;BME280;25793;55.706;13.186;2022-12-10T19:44:08;100521.75;;;2.41;79.21
40089;BME280;25793;55.706;13.186;2022-12-10T19:46:38;100511.50;;;2.39;78.95
40089;BME280;25793;55.706;13.186;2022-12-10T19:49:05;100519.94;;;2.44;78.96
40089;BME280;25793;55.706;13.186;2022-12-10T19:51:32;100517.66;;;2.33;78.81
40089;BME280;25793;55.706;13.186;2022-12-10T19:53:59;100533.06;;;2.33;79.35
40089;BME280;25793;55.706;13.186;2022-12-10T19:56:29;100525.75;;;2.18;79.63
40089;BME280;25793;55.706;13.186;2022-12-10T19:58:59;100529.84;;;2.25;79.72
40089;BME280;25793;55.706;13.186;2022-12-10T20:01:29;100536.28;;;2.07;79.85
40089;BME280;25793;55.706;13.186;2022-12-10T20:03:57;100527.25;;;1.90;80.79
40089;BME280;25793;55.706;13.186;2022-12-10T20:06:27;100534.88;;;1.93;80.91
40089;BME280;25793;55.706;13.186;2022-12-10T20:09:03;100526.31;;;1.94;81.27
40089;BME280;25793;55.706;13.186;2022-12-10T20:11:30;100527.78;;;2.05;81.46
40089;BME280;25793;55.706;13.186;2022-12-10T20:13:57;100530.13;;;2.13;81.26
40089;BME280;25793;55.706;13.186;2022-12-10T20:16:27;100529.97;;;2.20;80.99
40089;BME280;25793;55.706;13.186;2022-12-10T20:18:56;100527.41;;;2.19;81.00
40089;BME280;25793;55.706;13.186;2022-12-10T20:21:24;100515.56;;;2.15;80.88
40089;BME280;25793;55.706;13.186;2022-12-10T20:23:52;100531.81;;;2.15;81.11
40089;BME280;25793;55.706;13.186;2022-12-10T20:26:33;100518.31;;;2.07;81.16
40089;BME280;25793;55.706;13.186;2022-12-10T20:29:24;100527.56;;;2.13;81.39
40089;BME280;25793;55.706;13.186;2022-12-10T20:31:59;100519.69;;;2.20;81.14
40089;BME280;25793;55.706;13.186;2022-12-10T20:34:30;100516.56;;;2.09;81.28
40089;BME280;25793;55.706;13.186;2022-12-10T20:36:58;100528.06;;;2.27;81.27
40089;BME280;25793;55.706;13.186;2022-12-10T20:39:30;100527.75;;;2.40;81.03
40089;BME280;25793;55.706;13.186;2022-12-10T20:41:59;100511.56;;;2.37;80.51
40089;BME280;25793;55.706;13.186;2022-12-10T20:44:27;100528.59;;;2.40;80.48
40089;BME280;25793;55.706;13.186;2022-12-10T20:46:55;100526.97;;;2.36;80.74
40089;BME280;25793;55.706;13.186;2022-12-10T20:49:24;100523.97;;;2.53;80.15
40089;BME280;25793;55.706;13.186;2022-12-10T20:51:53;100524.56;;;2.63;79.88
40089;BME280;25793;55.706;13.186;2022-12-10T20:54:20;100518.66;;;2.59;79.65
40089;BME280;25793;55.706;13.186;2022-12-10T20:56:48;100528.78;;;2.65;79.74
40089;BME280;25793;55.706;13.186;2022-12-10T20:59:17;100530.16;;;2.77;79.19
40089;BME280;25793;55.706;13.186;2022-12-10T21:01:44;100521.66;;;2.75;78.97
40089;BME280;25793;55.706;13.186;2022-12-10T21:04:13;100531.47;;;2.61;79.09
40089;BME280;25793;55.706;13.186;2022-12-10T21:06:42;100534.22;;;2.55;79.18
40089;BME280;25793;55.706;13.186;2022-12-10T21:09:14;100522.63;;;2.40;79.62
40089;BME280;25793;55.706;13.186;2022-12-10T21:11:40;100536.22;;;2.43;79.64
40089;BME280;25793;55.706;13.186;2022-12-10T21:14:10;100533.13;;;2.30;79.99
40089;BME280;25793;55.706;13.186;2022-12-10T21:16:58;100535.53;;;2.36;80.14
40089;BME280;25793;55.706;13.186;2022-12-10T21:19:26;100529.53;;;2.37;80.06
40089;BME280;25793;55.706;13.186;2022-12-10T21:21:56;100522.28;;;2.20;80.35
40089;BME280;25793;55.706;13.186;2022-12-10T21:24:23;100535.13;;;2.19;80.59
40089;BME280;25793;55.706;13.186;2022-12-10T21:26:50;100533.44;;;2.18;80.94
40089;BME280;25793;55.706;13.186;2022-12-10T21:29:17;100539.44;;;2.17;80.76
40089;BME280;25793;55.706;13.186;2022-12-10T21:31:47;100535.25;;;2.14;80.59
40089;BME280;25793;55.706;13.186;2022-12-10T21:34:17;100535.53;;;2.02;81.55
40089;BME280;25793;55.706;13.186;2022-12-10T21:36:44;100527.03;;;2.00;81.03
40089;BME280;25793;55.706;13.186;2022-12-10T21:39:15;100535.69;;;1.96;81.36
40089;BME280;25793;55.706;13.186;2022-12-10T21:41:53;100538.25;;;1.96;81.50
40089;BME280;25793;55.706;13.186;2022-12-10T21:44:41;100543.28;;;2.00;81.32
40089;BME280;25793;55.706;13.186;2022-12-10T21:47:10;100528.06;;;1.94;81.38
40089;BME280;25793;55.706;13.186;2022-12-10T21:49:42;100530.75;;;1.88;81.42
40089;BME280;25793;55.706;13.186;2022-12-10T21:52:09;100545.47;;;1.79;81.81
40089;BME280;25793;55.706;13.186;2022-12-10T21:54:35;100540.06;;;1.56;83.17
40089;BME280;25793;55.706;13.186;2022-12-10T21:57:03;100540.50;;;1.73;83.07
40089;BME280;25793;55.706;13.186;2022-12-10T21:59:30;100535.28;;;1.78;82.03
40089;BME280;25793;55.706;13.186;2022-12-10T22:01:57;100533.06;;;1.62;82.26
40089;BME280;25793;55.706;13.186;2022-12-10T22:04:24;100534.78;;;1.62;82.52
40089;BME280;25793;55.706;13.186;2022-12-10T22:06:52;100545.88;;;1.62;82.57
40089;BME280;25793;55.706;13.186;2022-12-10T22:09:19;100530.69;;;1.53;82.52
40089;BME280;25793;55.706;13.186;2022-12-10T22:11:46;100543.44;;;1.56;82.37
40089;BME280;25793;55.706;13.186;2022-12-10T22:14:13;100541.34;;;1.36;83.40
40089;BME280;25793;55.706;13.186;2022-12-10T22:16:40;100537.50;;;1.56;83.20
40089;BME280;25793;55.706;13.186;2022-12-10T22:19:14;100541.50;;;1.68;82.70
40089;BME280;25793;55.706;13.186;2022-12-10T22:21:41;100530.41;;;1.67;82.33
40089;BME280;25793;55.706;13.186;2022-12-10T22:24:08;100531.56;;;1.54;82.71
40089;BME280;25793;55.706;13.186;2022-12-10T22:26:34;100524.50;;;1.63;82.74
40089;BME280;25793;55.706;13.186;2022-12-10T22:29:01;100538.09;;;1.67;82.37
40089;BME280;25793;55.706;13.186;2022-12-10T22:31:28;100534.94;;;1.54;82.38
40089;BME280;25793;55.706;13.186;2022-12-10T22:33:55;100523.69;;;1.22;83.87
40089;BME280;25793;55.706;13.186;2022-12-10T22:36:22;100517.56;;;1.31;84.40
40089;BME280;25793;55.706;13.186;2022-12-10T22:38:50;100521.31;;;1.52;83.24
40089;BME280;25793;55.706;13.186;2022-12-10T22:44:09;100521.56;;;1.41;82.83
40089;BME280;25793;55.706;13.186;2022-12-10T22:46:36;100524.28;;;1.35;82.96
40089;BME280;25793;55.706;13.186;2022-12-10T22:49:06;100537.88;;;1.37;82.75
40089;BME280;25793;55.706;13.186;2022-12-10T22:51:33;100536.63;;;1.17;83.76
40089;BME280;25793;55.706;13.186;2022-12-10T22:54:01;100523.13;;;1.09;84.07
40089;BME280;25793;55.706;13.186;2022-12-10T22:56:31;100525.31;;;1.28;83.08
40089;BME280;25793;55.706;13.186;2022-12-10T22:59:09;100532.06;;;1.30;82.24
40089;BME280;25793;55.706;13.186;2022-12-10T23:01:55;100531.38;;;1.22;82.60
40089;BME280;25793;55.706;13.186;2022-12-10T23:04:24;100525.31;;;1.28;82.48
40089;BME280;25793;55.706;13.186;2022-12-10T23:06:51;100531.38;;;1.22;82.11
40089;BME280;25793;55.706;13.186;2022-12-10T23:09:18;100523.06;;;1.12;82.30
40089;BME280;25793;55.706;13.186;2022-12-10T23:11:45;100518.31;;;0.95;83.33
40089;BME280;25793;55.706;13.186;2022-12-10T23:14:33;100519.81;;;1.06;82.85
40089;BME280;25793;55.706;13.186;2022-12-10T23:17:00;100525.34;;;0.84;83.25
40089;BME280;25793;55.706;13.186;2022-12-10T23:19:27;100515.69;;;0.98;83.08
40089;BME280;25793;55.706;13.186;2022-12-10T23:21:55;100523.34;;;0.98;82.51
40089;BME280;25793;55.706;13.186;2022-12-10T23:24:23;100526.97;;;0.88;82.30
40089;BME280;25793;55.706;13.186;2022-12-10T23:26:49;100519.00;;;0.59;83.31
40089;BME280;25793;55.706;13.186;2022-12-10T23:29:16;100524.09;;;0.61;83.77
40089;BME280;25793;55.706;13.186;2022-12-10T23:31:43;100517.13;;;0.68;83.10
40089;BME280;25793;55.706;13.186;2022-12-10T23:34:10;100516.91;;;0.79;83.15
40089;BME280;25793;55.706;13.186;2022-12-10T23:36:37;100521.09;;;0.84;82.74
40089;BME280;25793;55.706;13.186;2022-12-10T23:39:04;100522.34;;;0.63;84.17
40089;BME280;25793;55.706;13.186;2022-12-10T23:41:31;100509.91;;;0.88;83.82
40089;BME280;25793;55.706;13.186;2022-12-10T23:43:58;100527.59;;;0.99;82.72
40089;BME280;25793;55.706;13.186;2022-12-10T23:46:25;100521.38;;;0.70;82.73
40089;BME280;25793;55.706;13.186;2022-12-10T23:48:52;100523.94;;;0.69;84.01
40089;BME280;25793;55.706;13.186;2022-12-10T23:51:20;100513.81;;;0.64;83.81
40089;BME280;25793;55.706;13.186;2022-12-10T23:53:47;100520.34;;;0.79;82.88
40089;BME280;25793;55.706;13.186;2022-12-10T23:56:17;100524.19;;;0.56;83.81
40089;BME280;25793;55.706;13.186;2022-12-10T23:58:45;100523.88;;;0.72;83.60
